Time;durP1;ratioP1;P1;durP2;ratioP2;P2;SDS_P1;SDS_P2;PMS_P1;PMS_P2;Temp;Humidity;BMP_temperature;BMP_pressure;BME280_temperature;BME280_humidity;BME280_pressure;Samples;Min_cycle;Max_cycle;Signal;HPM_P1;HPM_P2
2022/11/24 00:01:34;;;;;;;110.80;39.50;;;;;;;-1.14;100.00;95617.71;105084;1305;25452;-77
2022/11/24 00:04:07;;;;;;;89.50;38.40;;;;;;;-1.13;100.00;95617.41;105043;1305;22511;-77
2022/11/24 00:06:38;;;;;;;90.10;36.50;;;;;;;-1.12;100.00;95618.50;105068;1284;23078;-77
2022/11/24 00:09:10;;;;;;;82.40;37.50;;;;;;;-1.08;100.00;95619.84;105126;1305;25564;-77
2022/11/24 00:11:41;;;;;;;86.60;33.80;;;;;;;-1.03;100.00;95625.39;105116;1283;22974;-77
2022/11/24 00:14:13;;;;;;;102.00;36.90;;;;;;;-1.02;100.00;95623.80;105232;1304;22591;-76
2022/11/24 00:16:44;;;;;;;90.40;35.60;;;;;;;-1.02;100.00;95625.73;105242;1304;22507;-76
2022/11/24 00:19:16;;;;;;;93.40;36.90;;;;;;;-1.05;100.00;95630.96;105252;1299;22472;-77
2022/11/24 00:21:48;;;;;;;98.20;34.10;;;;;;;-1.06;100.00;95636.79;105175;1287;22479;-77
2022/11/24 00:24:19;;;;;;;94.90;40.50;;;;;;;-1.06;100.00;95635.02;105120;1305;25661;-76
2022/11/24 00:26:51;;;;;;;94.80;39.00;;;;;;;-1.03;100.00;95636.59;105077;1305;23960;-76
2022/11/24 00:29:22;;;;;;;86.80;36.20;;;;;;;-0.99;100.00;95633.06;105061;1299;22485;-77
2022/11/24 00:31:54;;;;;;;87.20;36.80;;;;;;;-0.97;100.00;95633.61;105004;1292;22491;-77
2022/11/24 00:34:25;;;;;;;98.00;38.30;;;;;;;-0.93;100.00;95636.27;105056;1306;22465;-77
2022/11/24 00:36:56;;;;;;;113.50;38.50;;;;;;;-0.93;100.00;95642.57;105070;1306;22470;-77
2022/11/24 00:39:28;;;;;;;96.80;37.40;;;;;;;-0.92;100.00;95645.03;105029;1307;23699;-77
2022/11/24 00:41:59;;;;;;;85.90;37.90;;;;;;;-0.91;100.00;95645.05;105087;1305;23949;-77
2022/11/24 00:44:30;;;;;;;91.10;38.80;;;;;;;-0.89;100.00;95644.98;104997;1297;22467;-77
2022/11/24 00:47:01;;;;;;;92.10;38.60;;;;;;;-0.85;100.00;95648.23;105060;1305;22498;-77
2022/11/24 00:49:33;;;;;;;80.50;37.30;;;;;;;-0.82;100.00;95645.96;105116;1305;22479;-77
2022/11/24 00:52:04;;;;;;;102.60;37.80;;;;;;;-0.79;100.00;95647.63;105072;1297;22517;-77
2022/11/24 00:54:35;;;;;;;98.40;38.50;;;;;;;-0.76;100.00;95647.89;105023;1302;25413;-76
2022/11/24 00:57:06;;;;;;;86.90;37.80;;;;;;;-0.75;100.00;95646.86;105087;1284;22883;-77
2022/11/24 00:59:38;;;;;;;92.60;39.70;;;;;;;-0.74;100.00;95646.42;105101;1293;22472;-77
2022/11/24 01:02:09;;;;;;;95.00;36.70;;;;;;;-0.72;100.00;95648.02;105147;1305;25359;-77
2022/11/24 01:04:40;;;;;;;100.50;39.90;;;;;;;-0.70;100.00;95652.91;105032;1297;25311;-77
2022/11/24 01:07:14;;;;;;;84.00;36.80;;;;;;;-0.69;100.00;95653.77;105089;1305;22833;-77
2022/11/24 01:09:45;;;;;;;84.80;37.20;;;;;;;-0.67;100.00;95653.24;105095;1305;22696;-77
2022/11/24 01:12:17;;;;;;;99.70;39.20;;;;;;;-0.66;100.00;95653.41;105108;1287;22460;-77
2022/11/24 01:14:49;;;;;;;84.70;38.00;;;;;;;-0.70;100.00;95652.46;105023;1304;24361;-77
2022/11/24 01:17:21;;;;;;;86.30;38.40;;;;;;;-0.71;100.00;95652.27;105091;1305;25370;-77
2022/11/24 01:19:52;;;;;;;103.30;38.40;;;;;;;-0.71;100.00;95650.66;105108;1305;22478;-76
2022/11/24 01:22:25;;;;;;;85.30;33.80;;;;;;;-0.73;100.00;95655.75;105113;1292;22510;-76
2022/11/24 01:24:56;;;;;;;88.40;36.40;;;;;;;-0.86;100.00;95658.16;105045;1305;22504;-76
2022/11/24 01:27:27;;;;;;;81.30;35.00;;;;;;;-0.97;100.00;95658.09;105090;1297;22524;-76
2022/11/24 01:29:58;;;;;;;94.80;37.00;;;;;;;-1.07;100.00;95658.55;105103;1291;22525;-76
2022/11/24 01:32:34;;;;;;;86.80;37.40;;;;;;;-1.07;100.00;95663.70;105101;1305;22482;-76
2022/11/24 01:35:07;;;;;;;102.30;37.10;;;;;;;-1.04;100.00;95667.25;105020;1305;22475;-76
2022/11/24 01:37:38;;;;;;;95.60;37.20;;;;;;;-1.01;100.00;95667.92;105169;1296;24259;-76
2022/11/24 01:40:12;;;;;;;91.00;35.60;;;;;;;-1.01;100.00;95673.34;105104;1305;22487;-76
2022/11/24 01:42:47;;;;;;;91.60;37.30;;;;;;;-1.05;100.00;95672.45;105113;1305;22710;-76
2022/11/24 01:45:39;;;;;;;95.40;35.20;;;;;;;-1.03;100.00;95669.49;105042;1283;23844;-76
2022/11/24 01:48:19;;;;;;;82.60;35.30;;;;;;;-1.02;100.00;95671.95;105096;1304;22499;-76
2022/11/24 01:50:56;;;;;;;105.40;38.40;;;;;;;-1.01;100.00;95682.02;104328;1297;1170263;-76
2022/11/24 01:53:27;;;;;;;89.90;39.30;;;;;;;-1.00;100.00;95679.31;105120;1305;22549;-76
2022/11/24 01:56:00;;;;;;;88.30;36.90;;;;;;;-0.98;100.00;95680.81;105054;1305;23935;-76
2022/11/24 01:58:34;;;;;;;88.00;38.20;;;;;;;-1.04;100.00;95685.60;105099;1304;25309;-76
2022/11/24 02:01:06;;;;;;;82.10;37.30;;;;;;;-1.04;100.00;95689.40;105109;1298;24394;-76
2022/11/24 02:03:40;;;;;;;84.20;36.40;;;;;;;-1.03;100.00;95693.02;105054;1281;22649;-76
2022/11/24 02:06:14;;;;;;;74.20;34.00;;;;;;;-1.00;100.00;95691.52;105059;1281;22629;-76
2022/11/24 02:08:50;;;;;;;66.80;29.40;;;;;;;-1.00;100.00;95691.04;105090;1290;22508;-76
2022/11/24 02:11:24;;;;;;;78.80;34.70;;;;;;;-1.03;100.00;95694.17;105119;1284;22914;-76
2022/11/24 02:13:59;;;;;;;64.80;30.10;;;;;;;-1.06;100.00;95698.20;105134;1305;22463;-77
2022/11/24 02:16:32;;;;;;;68.80;30.90;;;;;;;-1.07;100.00;95703.39;105014;1281;22505;-76
2022/11/24 02:19:11;;;;;;;74.60;34.80;;;;;;;-1.12;100.00;95704.15;105114;1284;22498;-76
2022/11/24 02:21:42;;;;;;;74.40;28.60;;;;;;;-1.12;100.00;95706.04;105079;1305;22470;-76
2022/11/24 02:24:22;;;;;;;59.10;28.20;;;;;;;-1.13;100.00;95703.00;105112;1305;22450;-76
2022/11/24 02:26:53;;;;;;;69.50;30.80;;;;;;;-1.17;100.00;95706.70;105093;1302;22464;-77
2022/11/24 02:29:24;;;;;;;71.20;32.20;;;;;;;-1.24;100.00;95707.23;105080;1297;24265;-76
2022/11/24 02:32:04;;;;;;;75.30;34.80;;;;;;;-1.28;100.00;95706.73;105096;1290;22516;-76
2022/11/24 02:34:36;;;;;;;72.20;32.10;;;;;;;-1.30;100.00;95707.72;105035;1305;22478;-76
2022/11/24 02:37:07;;;;;;;80.30;36.70;;;;;;;-1.32;100.00;95707.32;105085;1305;22529;-76
2022/11/24 02:39:38;;;;;;;83.10;36.00;;;;;;;-1.33;100.00;95711.54;105087;1299;22604;-76
2022/11/24 02:42:13;;;;;;;81.80;35.30;;;;;;;-1.35;100.00;95714.85;105089;1290;22429;-76
2022/11/24 02:44:51;;;;;;;78.30;36.80;;;;;;;-1.37;100.00;95714.06;105043;1284;22466;-76
2022/11/24 02:47:24;;;;;;;78.90;35.20;;;;;;;-1.38;100.00;95715.08;105095;1289;22527;-76
2022/11/24 02:49:55;;;;;;;78.60;35.40;;;;;;;-1.36;100.00;95713.88;105223;1289;22490;-76
2022/11/24 02:52:27;;;;;;;77.90;36.00;;;;;;;-1.37;100.00;95713.85;105111;1304;22438;-76
2022/11/24 02:54:58;;;;;;;74.10;35.30;;;;;;;-1.38;100.00;95712.75;105050;1291;22487;-76
2022/11/24 02:57:29;;;;;;;83.10;36.40;;;;;;;-1.40;100.00;95715.66;105051;1305;25934;-76
2022/11/24 03:00:01;;;;;;;80.00;36.60;;;;;;;-1.40;100.00;95716.23;105164;1299;22478;-76
2022/11/24 03:02:32;;;;;;;67.00;32.80;;;;;;;-1.40;100.00;95714.06;105075;1290;22477;-76
2022/11/24 03:05:04;;;;;;;66.00;32.10;;;;;;;-1.41;100.00;95715.98;105080;1283;25067;-76
2022/11/24 03:07:35;;;;;;;63.90;31.00;;;;;;;-1.39;100.00;95716.45;105144;1296;22471;-76
2022/11/24 03:10:07;;;;;;;63.80;31.20;;;;;;;-1.36;100.00;95720.64;105135;1290;22457;-76
2022/11/24 03:12:38;;;;;;;62.40;32.70;;;;;;;-1.32;100.00;95722.03;105187;1305;22515;-76
2022/11/24 03:15:11;;;;;;;69.40;32.10;;;;;;;-1.28;100.00;95722.52;105130;1284;25990;-76
2022/11/24 03:17:42;;;;;;;83.70;37.50;;;;;;;-1.28;100.00;95727.16;105165;1290;22468;-76
2022/11/24 03:20:14;;;;;;;74.00;34.90;;;;;;;-1.29;100.00;95729.11;105105;1287;24274;-76
2022/11/24 03:22:48;;;;;;;78.30;38.30;;;;;;;-1.30;100.00;95729.87;105090;1299;23730;-76
2022/11/24 03:25:22;;;;;;;76.00;35.10;;;;;;;-1.29;100.00;95731.34;105044;1305;22471;-76
2022/11/24 03:27:55;;;;;;;73.90;34.10;;;;;;;-1.27;100.00;95729.69;105080;1290;23217;-76
2022/11/24 03:30:29;;;;;;;77.00;34.80;;;;;;;-1.27;100.00;95734.05;105119;1287;22483;-76
2022/11/24 03:33:00;;;;;;;69.60;34.50;;;;;;;-1.28;100.00;95731.72;105115;1297;24285;-77
2022/11/24 03:35:31;;;;;;;76.90;37.00;;;;;;;-1.30;100.00;95732.73;105048;1305;22635;-77
2022/11/24 03:38:03;;;;;;;71.60;33.40;;;;;;;-1.30;100.00;95734.45;105068;1299;22487;-77
2022/11/24 03:40:38;;;;;;;74.60;35.40;;;;;;;-1.28;100.00;95734.36;105088;1305;22879;-77
2022/11/24 03:43:10;;;;;;;68.70;33.00;;;;;;;-1.28;100.00;95732.97;105114;1299;22519;-77
2022/11/24 03:45:43;;;;;;;66.90;33.30;;;;;;;-1.28;100.00;95734.44;105088;1297;22470;-77
2022/11/24 03:48:15;;;;;;;74.40;36.10;;;;;;;-1.27;100.00;95735.73;105190;1294;22490;-76
2022/11/24 03:50:55;;;;;;;69.50;35.10;;;;;;;-1.24;100.00;95738.52;105238;1284;24264;-77
2022/11/24 03:53:29;;;;;;;68.00;33.50;;;;;;;-1.23;100.00;95742.22;105119;1294;24300;-77
2022/11/24 03:56:01;;;;;;;62.00;31.90;;;;;;;-1.24;100.00;95747.04;105202;1295;25375;-77
2022/11/24 03:58:34;;;;;;;58.90;30.50;;;;;;;-1.21;100.00;95747.39;105208;1303;23766;-77
2022/11/24 04:01:06;;;;;;;41.00;23.40;;;;;;;-1.19;100.00;95745.91;105217;1305;23190;-77
2022/11/24 04:03:37;;;;;;;60.80;31.30;;;;;;;-1.19;100.00;95748.12;105113;1283;22488;-77
2022/11/24 04:06:09;;;;;;;51.60;27.80;;;;;;;-1.16;100.00;95754.66;105065;1297;22514;-77
2022/11/24 04:08:40;;;;;;;48.10;26.90;;;;;;;-1.14;100.00;95755.44;105096;1305;22438;-77
2022/11/24 04:12:42;;;;;;;44.30;25.90;;;;;;;-1.13;100.00;95754.14;105055;1305;22473;-77
2022/11/24 04:14:03;;;;;;;50.20;26.50;;;;;;;-1.11;100.00;95756.63;105078;1305;22466;-77
2022/11/24 04:16:35;;;;;;;45.00;25.50;;;;;;;-1.09;100.00;95759.31;105106;1305;22488;-77
2022/11/24 04:19:06;;;;;;;47.10;25.40;;;;;;;-1.04;100.00;95763.11;105230;1297;22598;-77
2022/11/24 04:21:37;;;;;;;52.00;27.00;;;;;;;-1.00;100.00;95768.25;105133;1298;25908;-77
2022/11/24 04:24:12;;;;;;;49.50;26.70;;;;;;;-1.00;100.00;95771.11;105093;1281;24268;-77
2022/11/24 04:26:43;;;;;;;48.10;26.20;;;;;;;-0.98;100.00;95770.80;105144;1302;23735;-77
2022/11/24 04:29:14;;;;;;;47.10;28.10;;;;;;;-0.96;100.00;95771.86;105098;1291;22475;-77
2022/11/24 04:31:45;;;;;;;45.80;26.80;;;;;;;-0.95;100.00;95775.30;105201;1305;22481;-77
2022/11/24 04:34:17;;;;;;;50.30;27.60;;;;;;;-0.95;100.00;95778.69;105140;1296;22549;-77
2022/11/24 04:36:50;;;;;;;58.40;30.30;;;;;;;-0.96;100.00;95778.88;105137;1304;22621;-77
2022/11/24 04:39:21;;;;;;;59.00;31.10;;;;;;;-0.99;100.00;95777.06;105211;1297;22478;-77
2022/11/24 04:41:53;;;;;;;57.30;28.90;;;;;;;-1.01;100.00;95775.05;105227;1304;25477;-77
2022/11/24 04:44:25;;;;;;;56.70;30.80;;;;;;;-1.01;100.00;95778.02;105221;1304;22467;-77
2022/11/24 04:46:56;;;;;;;58.70;31.00;;;;;;;-0.99;100.00;95783.59;105062;1296;22484;-77
2022/11/24 04:49:27;;;;;;;48.30;27.00;;;;;;;-0.97;100.00;95784.85;105091;1293;22476;-77
2022/11/24 04:52:01;;;;;;;61.90;31.30;;;;;;;-0.99;100.00;95787.11;105097;1299;22468;-77
2022/11/24 04:54:32;;;;;;;61.10;31.00;;;;;;;-1.06;100.00;95787.23;104976;1306;22471;-77
2022/11/24 04:57:03;;;;;;;50.60;26.00;;;;;;;-1.11;100.00;95789.13;105092;1304;22532;-77
2022/11/24 04:59:35;;;;;;;54.30;28.10;;;;;;;-1.13;100.00;95793.06;105153;1305;22889;-77
2022/11/24 05:02:06;;;;;;;54.80;29.00;;;;;;;-1.15;100.00;95794.65;105222;1305;22465;-77
2022/11/24 05:04:37;;;;;;;58.00;29.30;;;;;;;-1.15;100.00;95795.38;105056;1298;22636;-77
2022/11/24 05:07:10;;;;;;;55.90;28.50;;;;;;;-1.16;100.00;95796.86;105095;1296;25278;-77
2022/11/24 05:12:30;;;;;;;46.90;24.50;;;;;;;-1.20;100.00;95801.61;105263;1297;22452;-77
2022/11/24 05:15:02;;;;;;;48.40;24.50;;;;;;;-1.21;100.00;95803.88;105058;1283;22505;-77
2022/11/24 05:17:37;;;;;;;49.10;26.60;;;;;;;-1.24;100.00;95804.20;105093;1297;22473;-77
2022/11/24 05:20:10;;;;;;;52.60;24.60;;;;;;;-1.23;100.00;95808.78;105103;1290;22515;-77
2022/11/24 05:22:41;;;;;;;48.10;26.00;;;;;;;-1.24;100.00;95803.52;105168;1297;22893;-77
2022/11/24 05:25:14;;;;;;;52.90;26.30;;;;;;;-1.26;100.00;95807.67;105076;1304;22502;-77
2022/11/24 05:27:45;;;;;;;51.00;26.60;;;;;;;-1.29;100.00;95811.54;105121;1296;22615;-77
2022/11/24 05:30:17;;;;;;;46.90;23.10;;;;;;;-1.29;100.00;95810.39;105228;1297;22633;-77
2022/11/24 05:32:48;;;;;;;46.00;24.00;;;;;;;-1.29;100.00;95809.86;105087;1305;24367;-77
2022/11/24 05:35:20;;;;;;;47.30;24.70;;;;;;;-1.29;100.00;95804.19;105042;1281;22566;-77
2022/11/24 05:37:51;;;;;;;45.80;25.10;;;;;;;-1.29;100.00;95805.34;105277;1303;22477;-77
2022/11/24 05:40:23;;;;;;;46.90;24.60;;;;;;;-1.27;100.00;95807.84;105124;1290;22472;-77
2022/11/24 05:42:56;;;;;;;45.70;23.00;;;;;;;-1.25;100.00;95809.30;105087;1284;22998;-77
2022/11/24 05:45:28;;;;;;;47.20;23.00;;;;;;;-1.26;100.00;95812.19;105075;1295;25360;-77
2022/11/24 05:48:06;;;;;;;49.10;23.90;;;;;;;-1.26;100.00;95816.96;105070;1290;22603;-77
2022/11/24 05:50:37;;;;;;;42.80;21.80;;;;;;;-1.27;100.00;95820.84;105058;1305;22470;-77
2022/11/24 05:53:11;;;;;;;47.70;24.90;;;;;;;-1.28;100.00;95824.73;105100;1305;22490;-77
2022/11/24 05:55:43;;;;;;;48.20;26.90;;;;;;;-1.28;100.00;95828.36;105062;1290;22863;-76
2022/11/24 05:58:14;;;;;;;39.70;21.10;;;;;;;-1.26;100.00;95831.59;105143;1305;22509;-76
2022/11/24 06:00:45;;;;;;;44.90;22.70;;;;;;;-1.25;100.00;95832.14;105081;1302;23021;-77
2022/11/24 06:03:16;;;;;;;38.10;20.90;;;;;;;-1.24;100.00;95826.17;105038;1301;22605;-77
2022/11/24 06:05:50;;;;;;;38.80;22.30;;;;;;;-1.22;100.00;95830.13;105053;1290;24330;-76
2022/11/24 06:08:22;;;;;;;41.10;22.70;;;;;;;-1.20;100.00;95833.29;105135;1300;22492;-77
2022/11/24 06:10:53;;;;;;;37.60;21.60;;;;;;;-1.16;100.00;95835.35;105093;1305;22471;-76
2022/11/24 06:13:24;;;;;;;38.40;21.70;;;;;;;-1.13;100.00;95839.07;105127;1305;22462;-76
2022/11/24 06:15:55;;;;;;;38.60;21.70;;;;;;;-1.13;100.00;95842.52;105024;1291;22569;-77
2022/11/24 06:18:26;;;;;;;39.70;21.40;;;;;;;-1.11;100.00;95845.63;105103;1305;23174;-77
2022/11/24 06:20:58;;;;;;;42.10;23.00;;;;;;;-1.10;100.00;95850.13;105116;1281;22471;-77
2022/11/24 06:23:29;;;;;;;37.00;20.90;;;;;;;-1.07;100.00;95854.15;105086;1303;25396;-77
2022/11/24 06:26:01;;;;;;;33.10;20.70;;;;;;;-1.05;100.00;95856.16;105162;1305;22969;-77
2022/11/24 06:28:32;;;;;;;41.00;22.40;;;;;;;-1.04;100.00;95857.44;105156;1302;22647;-77
2022/11/24 06:31:08;;;;;;;38.20;21.60;;;;;;;-1.04;100.00;95859.95;105103;1305;24151;-77
2022/11/24 06:33:39;;;;;;;33.90;21.50;;;;;;;-1.01;100.00;95864.17;105086;1290;22944;-77
2022/11/24 06:36:14;;;;;;;41.90;24.80;;;;;;;-0.98;100.00;95861.91;105138;1306;22457;-77
2022/11/24 06:38:45;;;;;;;34.80;20.70;;;;;;;-0.94;100.00;95863.69;105144;1306;23491;-76
2022/11/24 06:41:18;;;;;;;35.60;20.90;;;;;;;-0.89;100.00;95866.29;105185;1306;22553;-77
2022/11/24 06:43:50;;;;;;;39.70;22.60;;;;;;;-0.86;100.00;95873.27;105211;1297;22475;-77
2022/11/24 06:46:21;;;;;;;40.00;21.90;;;;;;;-0.82;100.00;95871.88;105169;1287;25317;-77
2022/11/24 06:48:54;;;;;;;39.00;22.00;;;;;;;-0.78;100.00;95867.75;105312;1281;22463;-77
2022/11/24 06:51:26;;;;;;;35.90;22.90;;;;;;;-0.77;100.00;95874.02;105259;1303;22500;-77
2022/11/24 06:54:00;;;;;;;33.20;20.10;;;;;;;-0.72;100.00;95879.58;105199;1289;22555;-77
2022/11/24 06:56:32;;;;;;;36.90;21.30;;;;;;;-0.71;100.00;95880.48;105081;1293;22487;-77
2022/11/24 06:59:03;;;;;;;31.10;18.90;;;;;;;-0.70;100.00;95883.25;105106;1300;25393;-77
2022/11/24 07:01:35;;;;;;;33.10;20.60;;;;;;;-0.70;100.00;95880.80;105124;1305;22677;-77
2022/11/24 07:04:07;;;;;;;34.70;19.80;;;;;;;-0.70;100.00;95883.52;105057;1284;23218;-76
2022/11/24 07:06:40;;;;;;;38.40;23.90;;;;;;;-0.73;100.00;95888.00;105065;1300;22480;-75
2022/11/24 07:09:14;;;;;;;34.90;20.70;;;;;;;-0.73;100.00;95889.44;105126;1284;22466;-76
2022/11/24 07:11:45;;;;;;;33.70;19.70;;;;;;;-0.75;100.00;95890.52;105139;1293;22637;-76
2022/11/24 07:14:18;;;;;;;29.40;19.30;;;;;;;-0.73;100.00;95890.02;105106;1305;22603;-76
2022/11/24 07:16:51;;;;;;;33.20;20.00;;;;;;;-0.73;100.00;95892.20;105162;1305;25836;-76
2022/11/24 07:19:23;;;;;;;33.20;21.40;;;;;;;-0.72;100.00;95896.45;105116;1294;24255;-76
2022/11/24 07:21:54;;;;;;;30.90;19.20;;;;;;;-0.70;100.00;95900.30;105118;1302;22457;-76
2022/11/24 07:24:26;;;;;;;34.20;19.40;;;;;;;-0.72;100.00;95904.40;105080;1305;22523;-76
2022/11/24 07:26:57;;;;;;;30.30;18.70;;;;;;;-0.70;100.00;95909.67;105105;1302;22479;-76
2022/11/24 07:29:32;;;;;;;32.60;17.90;;;;;;;-0.67;100.00;95911.58;105085;1291;23667;-75
2022/11/24 07:32:04;;;;;;;28.20;18.00;;;;;;;-0.67;100.00;95909.59;105207;1296;22603;-76
2022/11/24 07:34:35;;;;;;;26.40;14.80;;;;;;;-0.71;100.00;95909.95;105061;1305;22522;-76
2022/11/24 07:37:07;;;;;;;24.80;15.00;;;;;;;-0.74;100.00;95912.77;105094;1291;22479;-76
2022/11/24 07:39:41;;;;;;;28.20;15.90;;;;;;;-0.75;100.00;95914.23;105125;1305;22525;-76
2022/11/24 07:42:13;;;;;;;28.00;16.60;;;;;;;-0.75;100.00;95911.38;105205;1305;22485;-76
2022/11/24 07:44:47;;;;;;;24.60;15.80;;;;;;;-0.73;100.00;95915.00;105077;1305;23515;-76
2022/11/24 07:47:20;;;;;;;27.70;16.00;;;;;;;-0.73;100.00;95911.46;105102;1305;22626;-76
2022/11/24 07:49:52;;;;;;;33.10;20.00;;;;;;;-0.70;100.00;95913.08;105169;1279;23216;-76
2022/11/24 07:52:25;;;;;;;34.90;22.20;;;;;;;-0.66;100.00;95909.52;105130;1305;22517;-76
2022/11/24 07:54:57;;;;;;;30.30;18.90;;;;;;;-0.62;100.00;95913.87;105046;1305;22487;-76
2022/11/24 07:57:30;;;;;;;27.20;17.10;;;;;;;-0.58;100.00;95913.16;105136;1305;22746;-76
2022/11/24 08:00:03;;;;;;;30.30;18.70;;;;;;;-0.59;100.00;95912.89;105117;1305;22487;-76
2022/11/24 08:02:35;;;;;;;27.60;17.60;;;;;;;-0.59;100.00;95918.77;105128;1294;22804;-76
2022/11/24 08:05:08;;;;;;;23.80;15.50;;;;;;;-0.56;100.00;95916.69;105151;1304;22504;-76
2022/11/24 08:07:42;;;;;;;27.70;16.50;;;;;;;-0.55;100.00;95919.10;105182;1302;22529;-76
2022/11/24 08:10:19;;;;;;;26.50;15.60;;;;;;;-0.51;100.00;95921.73;105118;1305;22452;-76
2022/11/24 08:12:51;;;;;;;23.00;15.60;;;;;;;-0.48;100.00;95921.38;105179;1298;24253;-76
2022/11/24 08:15:23;;;;;;;25.70;16.30;;;;;;;-0.45;100.00;95924.71;105070;1289;22442;-76
2022/11/24 08:17:56;;;;;;;22.70;14.90;;;;;;;-0.41;100.00;95927.88;105190;1297;25942;-76
2022/11/24 08:20:27;;;;;;;25.70;14.80;;;;;;;-0.37;100.00;95926.85;105210;1302;22479;-76
2022/11/24 08:23:01;;;;;;;22.90;14.30;;;;;;;-0.37;100.00;95931.80;105140;1277;22494;-76
2022/11/24 08:25:33;;;;;;;25.60;16.80;;;;;;;-0.36;100.00;95938.36;105093;1305;22488;-76
2022/11/24 08:28:07;;;;;;;24.30;15.80;;;;;;;-0.35;100.00;95940.70;105183;1305;22470;-76
2022/11/24 08:30:39;;;;;;;23.50;15.60;;;;;;;-0.34;100.00;95945.86;105193;1284;23677;-76
2022/11/24 08:33:12;;;;;;;25.60;15.80;;;;;;;-0.35;100.00;95937.46;105169;1297;22467;-76
2022/11/24 08:35:44;;;;;;;21.80;14.50;;;;;;;-0.34;100.00;95937.27;105109;1304;22567;-76
2022/11/24 08:38:16;;;;;;;22.10;14.30;;;;;;;-0.33;100.00;95938.70;105214;1305;22476;-76
2022/11/24 08:40:48;;;;;;;20.60;13.10;;;;;;;-0.31;100.00;95941.83;105207;1305;22462;-76
2022/11/24 08:43:19;;;;;;;21.70;14.30;;;;;;;-0.27;100.00;95947.08;105118;1284;24879;-76
2022/11/24 08:45:51;;;;;;;19.30;13.30;;;;;;;-0.21;100.00;95946.69;105103;1278;24284;-76
2022/11/24 08:48:23;;;;;;;18.40;11.00;;;;;;;-0.16;100.00;95946.67;105168;1295;23027;-76
2022/11/24 08:50:56;;;;;;;17.40;11.00;;;;;;;-0.14;100.00;95951.17;105215;1291;22464;-76
2022/11/24 08:53:29;;;;;;;19.30;10.90;;;;;;;-0.16;100.00;95954.56;105084;1305;23226;-76
2022/11/24 08:56:03;;;;;;;19.60;13.10;;;;;;;-0.16;100.00;95955.28;105272;1304;22468;-76
2022/11/24 08:58:36;;;;;;;19.40;12.70;;;;;;;-0.16;100.00;95956.33;105099;1302;22871;-76
2022/11/24 09:01:09;;;;;;;18.00;11.10;;;;;;;-0.16;100.00;95958.98;105085;1296;22545;-76
2022/11/24 09:03:41;;;;;;;19.30;11.30;;;;;;;-0.18;100.00;95958.01;105139;1295;22662;-76
2022/11/24 09:06:13;;;;;;;22.10;12.70;;;;;;;-0.19;100.00;95958.87;105174;1306;26385;-76
2022/11/24 09:08:44;;;;;;;21.30;12.80;;;;;;;-0.18;100.00;95958.69;105117;1305;22483;-76
2022/11/24 09:11:16;;;;;;;22.10;12.10;;;;;;;-0.17;100.00;95957.35;105076;1301;22639;-76
2022/11/24 09:13:48;;;;;;;20.90;12.90;;;;;;;-0.14;100.00;95964.00;105119;1290;23750;-76
2022/11/24 09:16:21;;;;;;;25.20;15.60;;;;;;;-0.13;100.00;95962.70;105045;1292;23830;-76
2022/11/24 09:18:59;;;;;;;20.60;12.90;;;;;;;-0.10;100.00;95962.41;105152;1299;22616;-76
2022/11/24 09:21:36;;;;;;;22.20;13.40;;;;;;;-0.06;100.00;95962.17;105095;1302;22628;-76
2022/11/24 09:24:10;;;;;;;19.80;12.40;;;;;;;-0.05;100.00;95961.31;105076;1305;22514;-76
2022/11/24 09:26:42;;;;;;;22.60;14.00;;;;;;;-0.03;100.00;95960.42;105128;1289;24776;-76
2022/11/24 09:29:14;;;;;;;19.60;13.00;;;;;;;-0.01;100.00;95965.37;105100;1296;22489;-76
2022/11/24 09:31:45;;;;;;;19.40;10.50;;;;;;;-0.00;100.00;95962.89;105093;1284;23362;-76
2022/11/24 09:34:19;;;;;;;14.30;8.90;;;;;;;-0.01;100.00;95962.48;105077;1288;24243;-77
2022/11/24 09:36:50;;;;;;;19.00;12.40;;;;;;;-0.05;100.00;95963.66;105236;1303;22473;-76
2022/11/24 09:39:22;;;;;;;22.90;14.50;;;;;;;-0.04;100.00;95962.59;105100;1293;22919;-76
2022/11/24 09:42:15;;;;;;;22.90;16.20;;;;;;;-0.02;100.00;95965.75;105105;1305;22512;-76
2022/11/24 09:45:20;;;;;;;23.60;16.70;;;;;;;0.03;100.00;95969.27;105078;1287;22492;-76
2022/11/24 09:48:03;;;;;;;23.10;13.80;;;;;;;0.07;100.00;95966.37;105093;1305;22476;-76
2022/11/24 09:50:36;;;;;;;22.70;14.00;;;;;;;0.07;100.00;95966.16;105106;1303;22483;-76
2022/11/24 09:53:16;;;;;;;21.90;12.80;;;;;;;0.05;100.00;95963.41;105088;1288;24258;-76
2022/11/24 09:55:50;;;;;;;18.40;11.10;;;;;;;0.01;100.00;95965.64;105011;1287;24267;-76
2022/11/24 09:58:36;;;;;;;23.40;15.20;;;;;;;0.00;100.00;95965.77;105167;1302;23392;-76
2022/11/24 10:01:15;;;;;;;23.40;12.60;;;;;;;0.01;100.00;95969.21;105100;1290;22442;-76
2022/11/24 10:03:51;;;;;;;25.60;14.40;;;;;;;0.01;100.00;95965.00;105082;1306;22572;-76
2022/11/24 10:06:26;;;;;;;21.40;13.60;;;;;;;0.02;100.00;95966.02;105095;1283;23228;-76
2022/11/24 10:09:24;;;;;;;20.10;10.70;;;;;;;0.04;100.00;95964.95;105122;1305;24347;-76
2022/11/24 10:12:05;;;;;;;18.00;9.90;;;;;;;0.03;100.00;95965.77;105134;1304;22473;-76
2022/11/24 10:14:51;;;;;;;21.50;13.90;;;;;;;0.02;100.00;95963.73;105201;1287;22487;-76
2022/11/24 10:17:38;;;;;;;18.90;12.30;;;;;;;0.05;100.00;95962.59;105104;1297;22489;-76
2022/11/24 10:20:18;;;;;;;18.70;12.20;;;;;;;0.08;100.00;95956.37;105086;1309;22530;-76
2022/11/24 10:23:07;;;;;;;19.60;12.20;;;;;;;0.09;100.00;95961.40;105134;1304;25364;-76
2022/11/24 10:25:51;;;;;;;23.70;14.30;;;;;;;0.10;100.00;95962.58;105201;1304;22479;-76
2022/11/24 10:28:28;;;;;;;19.20;12.60;;;;;;;0.12;100.00;95959.45;105190;1304;22464;-76
2022/11/24 10:31:16;;;;;;;18.80;12.90;;;;;;;0.12;100.00;95961.41;105322;1304;22517;-76
2022/11/24 10:33:48;;;;;;;21.20;13.00;;;;;;;0.14;100.00;95964.40;105212;1305;22701;-76
2022/11/24 10:36:28;;;;;;;20.30;12.80;;;;;;;0.17;100.00;95966.87;105155;1306;22919;-76
2022/11/24 10:39:06;;;;;;;22.00;12.40;;;;;;;0.21;100.00;95967.15;105277;1288;24251;-76
2022/11/24 10:41:44;;;;;;;21.00;12.10;;;;;;;0.21;100.00;95965.95;105329;1304;22465;-76
2022/11/24 10:44:16;;;;;;;19.90;13.50;;;;;;;0.20;100.00;95966.34;105085;1306;22517;-76
2022/11/24 10:46:48;;;;;;;21.00;13.30;;;;;;;0.18;100.00;95965.33;105209;1284;22914;-76
2022/11/24 10:49:24;;;;;;;25.10;13.80;;;;;;;0.19;100.00;95967.42;105255;1306;22566;-76
2022/11/24 10:52:14;;;;;;;25.80;15.40;;;;;;;0.17;100.00;95969.41;105231;1306;24360;-76
2022/11/24 10:55:00;;;;;;;22.90;15.20;;;;;;;0.15;100.00;95966.75;105088;1306;22721;-76
2022/11/24 10:57:34;;;;;;;19.80;13.40;;;;;;;0.17;100.00;95969.63;105132;1298;23180;-76
2022/11/24 11:00:34;;;;;;;21.20;13.10;;;;;;;0.18;100.00;95967.61;105089;1303;22478;-76
2022/11/24 11:03:20;;;;;;;23.50;15.10;;;;;;;0.22;100.00;95972.02;105148;1305;23207;-76
2022/11/24 11:05:54;;;;;;;21.70;13.60;;;;;;;0.24;100.00;95970.09;105216;1284;24346;-76
2022/11/24 11:08:33;;;;;;;23.80;14.70;;;;;;;0.27;100.00;95969.00;105178;1297;22496;-76
2022/11/24 11:11:20;;;;;;;21.30;14.60;;;;;;;0.30;100.00;95964.74;105260;1287;22500;-76
2022/11/24 11:13:55;;;;;;;22.10;14.70;;;;;;;0.30;100.00;95966.84;105195;1305;22628;-76
2022/11/24 11:16:30;;;;;;;22.20;14.50;;;;;;;0.33;100.00;95958.76;105133;1287;22481;-76
2022/11/24 11:19:05;;;;;;;22.10;15.20;;;;;;;0.33;100.00;95959.80;105134;1297;22467;-76
2022/11/24 11:21:39;;;;;;;25.60;17.10;;;;;;;0.36;100.00;95959.38;105125;1304;22449;-76
2022/11/24 11:24:18;;;;;;;21.30;15.00;;;;;;;0.41;100.00;95962.49;105182;1298;22613;-76
2022/11/24 11:26:59;;;;;;;20.30;12.80;;;;;;;0.46;100.00;95957.72;105154;1304;22480;-76
2022/11/24 11:29:32;;;;;;;21.50;14.40;;;;;;;0.45;100.00;95957.77;105122;1295;22749;-76
2022/11/24 11:32:16;;;;;;;20.70;14.20;;;;;;;0.44;100.00;95957.95;105214;1306;22964;-76
2022/11/24 11:34:49;;;;;;;21.40;13.60;;;;;;;0.44;100.00;95959.72;105071;1305;25882;-76